Time;durP1;ratioP1;P1;durP2;ratioP2;P2;SDS_P1;SDS_P2;PMS_P1;PMS_P2;Temp;Humidity;BMP_temperature;BMP_pressure;BME280_temperature;BME280_humidity;BME280_pressure;Samples;Min_cycle;Max_cycle;Signal;HPM_P1;HPM_P2
2022/01/22 00:03:13;;;;;;;23.52;3.90;;;;;;;1.67;100.00;102492.19;9831046;30;20036;-90
2022/01/22 00:08:13;;;;;;;16.10;3.65;;;;;;;2.07;100.00;102577.78;9815927;30;20042;-90
2022/01/22 00:18:17;;;;;;;25.10;4.32;;;;;;;0.99;100.00;102469.13;9822808;30;20111;-89
2022/01/22 00:23:20;;;;;;;31.55;4.43;;;;;;;1.52;100.00;102507.31;9808232;30;20146;-88
2022/01/22 00:28:22;;;;;;;29.40;4.15;;;;;;;4.50;100.00;102889.13;9808754;30;20062;-90
2022/01/22 00:33:22;;;;;;;20.85;4.18;;;;;;;1.09;100.00;102294.59;9832436;30;20040;-89
2022/01/22 00:38:23;;;;;;;29.83;4.60;;;;;;;3.82;100.00;102770.91;9814299;30;20060;-89
2022/01/22 00:43:23;;;;;;;18.27;4.20;;;;;;;5.24;100.00;103131.31;9829179;30;20102;-89
2022/01/22 00:48:24;;;;;;;30.50;4.93;;;;;;;2.16;100.00;102549.66;9828261;30;20043;-88
2022/01/22 00:53:24;;;;;;;14.43;3.72;;;;;;;4.19;100.00;102857.78;9828381;30;20039;-88
2022/01/22 00:58:25;;;;;;;18.08;2.80;;;;;;;1.48;100.00;102462.50;9813000;30;20044;-89
2022/01/22 01:03:30;;;;;;;12.65;2.47;;;;;;;3.35;100.00;102742.25;9842429;30;20490;-89
2022/01/22 01:08:33;;;;;;;17.00;2.85;;;;;;;1.32;100.00;102474.88;9844063;30;20452;-89
2022/01/22 01:13:40;;;;;;;10.07;2.10;;;;;;;1.77;100.00;102416.91;9843089;30;20039;-88
2022/01/22 01:34:43;;;;;;;16.13;1.90;;;;;;;0.66;100.00;102351.28;9846199;30;20044;-88
2022/01/22 01:39:45;;;;;;;9.33;1.60;;;;;;;0.38;100.00;102204.19;9827539;30;20097;-89
2022/01/22 01:44:46;;;;;;;7.18;1.70;;;;;;;3.30;100.00;102837.16;9842363;30;20047;-89
2022/01/22 01:49:47;;;;;;;14.25;2.50;;;;;;;1.44;100.00;102450.25;9856179;30;20044;-89
2022/01/22 01:55:00;;;;;;;19.08;4.25;;;;;;;4.08;100.00;102895.41;9841006;30;20390;-89
2022/01/22 02:00:00;;;;;;;23.52;4.95;;;;;;;1.87;100.00;102577.06;9858920;30;20059;-89
2022/01/22 02:05:01;;;;;;;22.20;3.25;;;;;;;4.93;100.00;103079.13;9789368;30;20072;-89
2022/01/22 02:10:03;;;;;;;16.52;3.53;;;;;;;1.09;100.00;102465.47;9789837;30;20048;-88
2022/01/22 02:25:42;;;;;;;12.13;2.28;;;;;;;5.18;100.00;103188.47;9844249;30;20093;-89
2022/01/22 02:30:46;;;;;;;6.28;1.73;;;;;;;2.34;100.00;102720.84;9806967;30;20052;-89
2022/01/22 02:35:55;;;;;;;9.27;1.48;;;;;;;1.85;100.00;102646.13;9833108;30;20047;-90
2022/01/22 02:40:56;;;;;;;10.63;2.42;;;;;;;2.44;100.00;102677.28;9805116;30;20040;-89
2022/01/22 02:45:58;;;;;;;14.30;3.05;;;;;;;5.14;100.00;103177.00;9845937;30;20512;-90
2022/01/22 02:50:59;;;;;;;14.85;2.53;;;;;;;2.71;100.00;102697.22;9833908;30;20027;-90
2022/01/22 02:56:00;;;;;;;17.30;2.83;;;;;;;2.87;100.00;102798.00;9833199;30;20055;-90
2022/01/22 03:01:00;;;;;;;13.25;3.05;;;;;;;1.04;100.00;102454.25;9841809;30;20118;-91
2022/01/22 03:06:01;;;;;;;11.52;2.70;;;;;;;3.60;100.00;102930.34;9811748;30;20462;-92
2022/01/22 03:11:06;;;;;;;12.23;2.42;;;;;;;0.70;100.00;102373.53;9826244;30;20119;-91
2022/01/22 03:21:35;;;;;;;10.63;1.65;;;;;;;3.01;100.00;102802.88;9844750;30;20054;-90
2022/01/22 03:31:55;;;;;;;12.65;1.90;;;;;;;0.82;100.00;102540.41;9831042;30;20048;-92
2022/01/22 03:36:55;;;;;;;11.63;2.17;;;;;;;2.90;100.00;102754.16;9840663;30;20055;-91
2022/01/22 03:41:56;;;;;;;9.90;2.15;;;;;;;2.61;100.00;102834.13;9811028;30;20106;-91
2022/01/22 03:46:57;;;;;;;17.77;3.42;;;;;;;0.63;100.00;102429.38;9816437;30;20135;-90
2022/01/22 03:51:57;;;;;;;12.75;3.05;;;;;;;0.99;100.00;102626.44;9831867;30;20040;-92
2022/01/22 03:57:03;;;;;;;19.42;2.83;;;;;;;0.73;100.00;102554.88;9818271;30;20127;-92
2022/01/22 04:02:41;;;;;;;24.23;2.55;;;;;;;2.44;100.00;102633.81;9876426;30;20398;-90
2022/01/22 04:08:06;;;;;;;13.15;2.00;;;;;;;0.90;100.00;102491.72;9837247;30;20148;-91
2022/01/22 04:13:08;;;;;;;13.65;3.47;;;;;;;3.54;100.00;102808.41;9854492;30;20059;-93
2022/01/22 04:29:10;;;;;;;24.05;3.80;;;;;;;0.90;100.00;102578.47;9835700;30;20052;-93
2022/01/22 04:34:11;;;;;;;22.00;3.40;;;;;;;-2.09;100.00;101937.13;9832063;30;20044;-93
2022/01/22 04:39:11;;;;;;;12.18;3.30;;;;;;;0.59;100.00;102602.28;9846169;30;20138;-93
2022/01/22 04:44:13;;;;;;;20.25;3.47;;;;;;;0.80;100.00;102616.47;9830960;30;20120;-92
2022/01/22 04:52:30;;;;;;;14.50;3.55;;;;;;;2.40;100.00;102849.88;9831073;30;20044;-90
2022/01/22 04:59:53;;;;;;;13.95;3.85;;;;;;;1.56;100.00;102574.72;9821448;30;20058;-89
2022/01/22 05:04:54;;;;;;;10.90;3.08;;;;;;;2.31;100.00;102759.19;9793905;30;20135;-92
2022/01/22 05:09:54;;;;;;;18.20;3.15;;;;;;;-1.07;100.00;102061.47;9807670;30;20050;-93
2022/01/22 05:14:57;;;;;;;13.05;2.50;;;;;;;3.50;100.00;102891.44;9793026;30;20048;-89
2022/01/22 05:20:08;;;;;;;18.98;3.10;;;;;;;1.96;100.00;102663.06;9806867;30;20044;-89
2022/01/22 05:25:14;;;;;;;11.68;2.10;;;;;;;3.36;100.00;102939.13;9837319;30;20059;-88
2022/01/22 05:40:35;;;;;;;17.40;2.08;;;;;;;2.52;100.00;102883.13;9823146;30;20059;-92
2022/01/22 05:45:36;;;;;;;15.75;2.78;;;;;;;3.47;100.00;103027.91;9807648;30;20121;-92
2022/01/22 05:51:01;;;;;;;24.48;4.00;;;;;;;0.81;100.00;102484.50;9806689;30;20182;-92
2022/01/22 06:00:58;;;;;;;17.50;3.20;;;;;;;4.83;100.00;103240.25;9836936;30;20063;-91
2022/01/22 06:05:58;;;;;;;11.85;2.40;;;;;;;-1.92;100.00;102033.56;9807818;30;20138;-93
2022/01/22 06:11:07;;;;;;;12.48;3.35;;;;;;;2.16;100.00;102717.28;9821159;30;20075;-89
2022/01/22 06:16:07;;;;;;;19.23;4.20;;;;;;;0.79;100.00;102614.78;9833697;30;20471;-89
2022/01/22 06:21:10;;;;;;;18.88;2.67;;;;;;;3.40;100.00;102886.91;9805290;30;20050;-92
2022/01/22 06:26:11;;;;;;;13.45;2.30;;;;;;;0.02;100.00;102328.69;9820538;30;20046;-93
2022/01/22 06:31:12;;;;;;;15.50;2.78;;;;;;;-1.80;100.00;101999.13;9840888;30;20520;-90
2022/01/22 06:36:12;;;;;;;9.77;2.20;;;;;;;0.88;100.00;102659.13;9840910;30;20081;-89
2022/01/22 06:46:34;;;;;;;18.48;2.63;;;;;;;-0.13;100.00;102351.84;9857333;30;20130;-89
2022/01/22 06:51:38;;;;;;;19.10;2.85;;;;;;;-1.58;100.00;102222.09;9826850;30;20118;-94
2022/01/22 06:56:39;;;;;;;14.35;3.72;;;;;;;-0.84;100.00;102321.50;9842826;30;20143;-93
2022/01/22 07:01:43;;;;;;;16.02;3.08;;;;;;;0.93;100.00;102561.94;9841888;30;20038;-93
2022/01/22 07:06:48;;;;;;;14.40;2.92;;;;;;;0.77;100.00;102746.06;9856116;30;20405;-93
2022/01/22 07:11:49;;;;;;;22.73;2.95;;;;;;;0.96;100.00;102705.34;9842374;30;20067;-90
2022/01/22 07:16:50;;;;;;;23.58;2.83;;;;;;;2.29;100.00;102831.88;9804229;30;20052;-89
2022/01/22 07:22:08;;;;;;;13.38;3.50;;;;;;;-2.59;100.00;101932.78;9803227;30;20048;-89
2022/01/22 07:27:09;;;;;;;12.55;2.63;;;;;;;2.83;100.00;102834.69;9819255;30;20044;-90
2022/01/22 07:32:20;;;;;;;15.43;2.97;;;;;;;0.07;100.00;102413.03;9778632;30;20418;-92
2022/01/22 07:37:23;;;;;;;14.90;3.80;;;;;;;-0.68;100.00;102304.69;9809500;30;20090;-90
2022/01/22 07:42:29;;;;;;;16.92;3.17;;;;;;;2.28;100.00;102813.03;9832412;30;20059;-92
2022/01/22 07:47:30;;;;;;;13.90;3.92;;;;;;;1.62;100.00;102703.56;9824094;30;20048;-90
2022/01/22 07:52:33;;;;;;;14.13;4.05;;;;;;;2.68;100.00;103042.94;9808894;30;20039;-90
2022/01/22 07:57:34;;;;;;;18.10;3.13;;;;;;;-1.51;100.00;102279.09;9809226;30;20044;-90
2022/01/22 08:02:34;;;;;;;16.65;3.15;;;;;;;-0.79;100.00;102241.81;9824494;30;20047;-91
2022/01/22 08:07:35;;;;;;;12.65;3.13;;;;;;;1.70;100.00;102725.41;9809675;30;20186;-89
2022/01/22 08:12:37;;;;;;;11.50;2.80;;;;;;;3.09;100.00;103013.53;9809427;30;20157;-90
2022/01/22 08:17:38;;;;;;;12.38;3.10;;;;;;;0.09;100.00;102508.53;9827681;30;20085;-91
2022/01/22 08:22:39;;;;;;;14.48;2.65;;;;;;;2.44;100.00;102902.94;9831736;30;20559;-93
2022/01/22 08:28:52;;;;;;;10.00;2.90;;;;;;;-0.86;100.00;102306.44;9831168;30;20127;-92
2022/01/22 08:38:30;;;;;;;15.98;3.20;;;;;;;1.27;100.00;102612.88;9825873;30;20055;-91
2022/01/22 08:43:31;;;;;;;11.98;3.10;;;;;;;-0.12;100.00;102592.63;9821903;30;20406;-89
2022/01/22 08:48:33;;;;;;;11.57;3.83;;;;;;;-0.92;100.00;102374.59;9843624;30;20044;-90
2022/01/22 08:53:34;;;;;;;21.55;3.45;;;;;;;0.41;100.00;102661.75;9844127;30;20111;-90
2022/01/22 08:58:37;;;;;;;11.90;2.13;;;;;;;-0.38;100.00;102527.38;9832061;29;20115;-90
2022/01/22 09:03:56;;;;;;;;;;;;;;;;;;;;;
2022/01/22 09:09:25;;;;;;;13.00;2.92;;;;;;;0.85;100.00;102708.25;9776750;30;20045;-94
2022/01/22 09:14:33;;;;;;;12.73;2.10;;;;;;;1.63;100.00;102861.88;9813806;30;20039;-91
2022/01/22 09:19:37;;;;;;;12.68;2.10;;;;;;;1.58;100.00;102859.63;9842375;30;20059;-88
2022/01/22 09:24:52;;;;;;;12.20;2.10;;;;;;;-3.00;100.00;101917.72;9845013;30;20036;-94
2022/01/22 09:30:13;;;;;;;10.35;2.25;;;;;;;2.59;100.00;102886.97;9847062;30;20063;-93
2022/01/22 09:35:16;;;;;;;14.05;2.13;;;;;;;1.13;100.00;102575.38;9844434;30;20075;-89
2022/01/22 09:40:20;;;;;;;15.52;2.10;;;;;;;0.91;100.00;102704.06;9829206;30;20131;-93
2022/01/22 09:45:28;;;;;;;9.18;2.13;;;;;;;-0.88;100.00;102398.50;9845145;30;20136;-94
2022/01/22 09:50:33;;;;;;;9.65;1.65;;;;;;;0.49;100.00;102515.56;9830520;30;20126;-94
2022/01/22 09:55:34;;;;;;;12.93;1.88;;;;;;;2.27;100.00;102866.50;9828829;30;20060;-95
2022/01/22 10:00:35;;;;;;;8.15;1.92;;;;;;;0.12;100.00;102470.31;9840605;30;20081;-89
2022/01/22 10:05:37;;;;;;;7.93;1.55;;;;;;;-0.12;100.00;102440.19;9828835;30;20054;-88
2022/01/22 10:10:38;;;;;;;5.30;0.90;;;;;;;2.68;100.00;102871.59;9803503;30;20043;-89
2022/01/22 10:15:39;;;;;;;5.13;1.02;;;;;;;-0.58;100.00;102344.38;9823751;30;20398;-89
2022/01/22 10:20:42;;;;;;;4.53;0.80;;;;;;;-1.27;100.00;102097.66;9825785;30;20051;-87
2022/01/22 10:25:48;;;;;;;5.63;1.25;;;;;;;2.52;100.00;102908.47;9802906;30;20043;-87
2022/01/22 10:31:00;;;;;;;2.33;0.70;;;;;;;-1.11;100.00;102219.53;9790087;30;20063;-87
2022/01/22 10:36:19;;;;;;;5.53;0.93;;;;;;;-0.17;100.00;102312.53;9804307;30;20506;-90
2022/01/22 10:41:41;;;;;;;6.15;0.77;;;;;;;5.53;100.00;103356.88;9800344;30;20089;-93
2022/01/22 10:46:43;;;;;;;3.38;0.70;;;;;;;1.44;100.00;102757.78;9842176;30;20043;-89
2022/01/22 10:51:59;;;;;;;2.55;0.60;;;;;;;4.28;100.00;103062.34;9844189;29;20454;-90
2022/01/22 10:57:23;;;;;;;3.58;0.60;;;;;;;0.92;100.00;102673.25;9817907;30;20067;-95
2022/01/22 11:02:40;;;;;;;6.05;1.85;;;;;;;1.68;100.00;102540.06;9816646;30;20044;-95
2022/01/22 11:08:13;;;;;;;7.72;1.10;;;;;;;1.77;100.00;102672.19;9842393;30;20389;-94
2022/01/22 11:13:19;;;;;;;2.00;0.60;;;;;;;5.60;100.00;103414.47;9854391;30;20098;-90
2022/01/22 11:18:22;;;;;;;6.13;0.85;;;;;;;0.03;100.00;102506.41;9863985;30;20039;-91
2022/01/22 11:23:25;;;;;;;9.02;1.00;;;;;;;-0.76;100.00;102360.50;9835919;30;20497;-91
2022/01/22 11:28:28;;;;;;;11.70;1.30;;;;;;;5.72;100.00;103339.41;9844112;30;20051;-91
2022/01/22 11:33:32;;;;;;;7.20;1.15;;;;;;;-0.74;100.00;102391.81;9844899;30;20051;-91
2022/01/22 11:38:45;;;;;;;3.78;0.88;;;;;;;0.20;100.00;102424.38;9831030;29;20099;-89
2022/01/22 11:44:11;;;;;;;6.10;1.02;;;;;;;1.90;100.00;102722.56;9825600;30;20048;-90
2022/01/22 11:49:21;;;;;;;7.75;0.80;;;;;;;0.72;100.00;102564.84;9844646;30;20459;-91
2022/01/22 11:54:32;;;;;;;6.07;0.80;;;;;;;0.99;100.00;102462.81;9847567;30;20067;-90
2022/01/22 11:59:41;;;;;;;4.22;0.88;;;;;;;0.33;100.00;102564.09;9850266;30;20406;-91
2022/01/22 12:04:52;;;;;;;9.18;1.38;;;;;;;2.24;100.00;102697.47;9851128;30;20055;-93
2022/01/22 12:14:25;;;;;;;7.97;0.88;;;;;;;2.31;100.00;102766.50;9815184;30;20040;-93
2022/01/22 12:16:01;;;;;;;7.03;1.33;;;;;;;-0.62;100.00;102217.56;9839562;30;20051;-93
2022/01/22 12:21:56;;;;;;;7.38;1.33;;;;;;;4.95;100.00;103302.81;9830870;30;20210;-90
2022/01/22 12:27:09;;;;;;;;;;;;;;;5.86;100.00;103259.50;9858395;30;20044;-90
2022/01/22 12:32:26;;;;;;;6.60;1.08;;;;;;;4.55;100.00;103051.28;9858653;30;19926;-90
2022/01/22 12:38:02;;;;;;;7.47;1.38;;;;;;;4.27;100.00;103226.97;9840336;30;20075;-89
2022/01/22 12:53:35;;;;;;;7.97;1.75;;;;;;;4.26;100.00;103013.44;10718292;24;20055;-94
2022/01/22 12:58:39;;;;;;;4.65;2.15;;;;;;;4.68;100.00;103315.53;9845629;30;20048;-88
2022/01/22 13:03:45;;;;;;;4.53;2.20;;;;;;;2.74;100.00;102890.88;9833519;30;20044;-89
2022/01/22 13:08:45;;;;;;;8.77;1.52;;;;;;;2.55;100.00;102815.72;9817952;30;20044;-88
2022/01/22 13:13:49;;;;;;;11.38;2.28;;;;;;;4.20;100.00;103207.66;9834149;30;20039;-88
2022/01/22 13:18:58;;;;;;;13.77;4.20;;;;;;;2.30;100.00;102813.75;9830699;30;20036;-87
2022/01/22 13:24:03;;;;;;;11.57;3.30;;;;;;;2.48;100.00;102733.06;9822358;30;20447;-88
2022/01/22 13:29:22;;;;;;;16.45;3.28;;;;;;;2.91;100.00;102804.84;9860795;30;20039;-94
2022/01/22 13:34:34;;;;;;;8.80;3.33;;;;;;;1.09;100.00;102677.91;9833308;30;20032;-95
2022/01/22 13:40:02;;;;;;;11.88;3.92;;;;;;;1.82;100.00;102804.81;9903281;29;20050;-95
2022/01/22 13:45:19;;;;;;;10.25;3.53;;;;;;;4.28;100.00;103005.94;9898721;29;20055;-95
2022/01/22 13:50:21;;;;;;;9.77;3.40;;;;;;;0.75;100.00;102617.94;9892042;29;20053;-95
2022/01/22 13:55:21;;;;;;;12.32;4.07;;;;;;;3.10;100.00;102909.09;9884867;29;20063;-84
2022/01/22 14:00:24;;;;;;;12.40;4.32;;;;;;;-0.42;100.00;102525.94;9865314;29;20150;-91
2022/01/22 14:05:26;;;;;;;26.95;6.40;;;;;;;2.98;100.00;103074.47;9851513;29;20066;-93
2022/01/22 14:10:41;;;;;;;18.45;4.97;;;;;;;-0.14;100.00;102372.66;9863009;29;20035;-94
2022/01/22 14:15:48;;;;;;;16.85;5.78;;;;;;;-1.05;100.00;102421.69;9860939;29;20047;-94
2022/01/22 14:20:56;;;;;;;11.73;5.15;;;;;;;0.09;100.00;102356.88;9879726;29;20047;-94
2022/01/22 14:26:31;;;;;;;20.15;5.32;;;;;;;2.11;100.00;102754.91;9851779;29;20061;-90
2022/01/22 14:31:43;;;;;;;15.35;5.00;;;;;;;5.43;100.00;103253.16;9870646;29;20035;-95
2022/01/22 14:36:47;;;;;;;16.50;4.68;;;;;;;1.85;100.00;102800.94;9892353;29;20058;-90
2022/01/22 14:47:57;;;;;;;16.85;5.70;;;;;;;2.34;100.00;102839.59;9884671;29;20039;-91
2022/01/22 14:53:24;;;;;;;8.05;3.10;;;;;;;-1.05;100.00;102373.03;9864739;29;20159;-91
2022/01/22 14:58:51;;;;;;;17.27;2.88;;;;;;;1.01;100.00;102683.22;9870529;29;20050;-91
2022/01/22 15:03:56;;;;;;;12.70;4.68;;;;;;;-0.07;100.00;102562.41;9883873;29;20507;-92
2022/01/22 15:09:02;;;;;;;12.70;3.10;;;;;;;2.73;100.00;102888.28;9893176;29;20411;-92
2022/01/22 15:14:10;;;;;;;12.70;3.53;;;;;;;1.01;100.00;102593.72;9870938;29;20396;-92
2022/01/22 15:19:33;;;;;;;;;;;;;;;;;;;;;
2022/01/22 15:24:44;;;;;;;11.90;3.28;;;;;;;-0.80;100.00;102343.72;9862000;29;20048;-90
2022/01/22 15:30:00;;;;;;;10.77;3.33;;;;;;;-2.28;100.00;102075.59;9856767;29;20400;-90
2022/01/22 15:35:19;;;;;;;7.75;2.60;;;;;;;-1.23;100.00;102397.16;9882075;29;20413;-90
2022/01/22 15:40:41;;;;;;;10.88;2.25;;;;;;;0.89;100.00;102606.63;9867239;29;20069;-93
2022/01/22 15:46:02;;;;;;;17.27;2.95;;;;;;;0.49;100.00;102650.22;9881828;29;20047;-91
2022/01/22 15:51:22;;;;;;;;;;;;;;;;;;;;;
2022/01/22 15:56:24;;;;;;;11.52;2.95;;;;;;;-1.53;100.00;102254.97;9898737;29;20412;-91
2022/01/22 16:01:32;;;;;;;7.63;2.25;;;;;;;-0.95;100.00;102472.19;9884149;29;20044;-92
2022/01/22 16:06:47;;;;;;;12.95;1.88;;;;;;;2.74;100.00;103107.63;9871028;29;20039;-90
2022/01/22 16:11:54;;;;;;;7.60;1.77;;;;;;;-1.65;100.00;102504.53;9885450;29;20043;-92
2022/01/22 16:17:04;;;;;;;8.55;2.28;;;;;;;2.10;100.00;102990.44;9880916;29;20088;-91
2022/01/22 16:22:08;;;;;;;4.50;2.00;;;;;;;-1.09;100.00;102344.56;9863532;29;20039;-91
2022/01/22 16:27:11;;;;;;;6.78;2.22;;;;;;;1.73;100.00;102958.63;9858893;29;20031;-91
2022/01/22 16:32:31;;;;;;;;;;;;;;;;;;;;;
2022/01/22 16:37:52;;;;;;;;;;;;;;;4.75;100.00;103281.13;9852120;29;20046;-91
2022/01/22 16:43:30;;;;;;;6.70;2.25;;;;;;;2.26;100.00;103070.53;9869749;29;19918;-92
2022/01/22 16:59:52;;;;;;;11.82;2.33;;;;;;;1.40;100.00;102819.63;9865520;30;20051;-90
2022/01/22 17:05:02;;;;;;;10.10;2.60;;;;;;;0.25;100.00;102772.53;9853321;30;20466;-92
2022/01/22 17:10:13;;;;;;;8.70;2.80;;;;;;;3.75;100.00;103287.53;9831550;30;20139;-90
2022/01/22 17:15:14;;;;;;;10.70;3.15;;;;;;;-0.88;100.00;102641.84;9831846;30;20517;-91
2022/01/22 17:20:16;;;;;;;9.77;2.63;;;;;;;0.78;100.00;102713.38;9829259;30;20038;-89
2022/01/22 17:25:19;;;;;;;10.50;3.90;;;;;;;0.60;100.00;102658.19;9830173;30;20047;-90
2022/01/22 17:30:19;;;;;;;9.82;2.90;;;;;;;3.29;100.00;103161.25;9829041;30;20147;-90
2022/01/22 17:35:22;;;;;;;8.77;4.10;;;;;;;0.68;100.00;102877.03;9828920;30;20122;-90
2022/01/22 17:40:25;;;;;;;11.07;3.20;;;;;;;0.89;100.00;102823.56;9829078;30;20084;-88
2022/01/22 17:45:25;;;;;;;11.30;3.65;;;;;;;2.75;100.00;103201.81;9844173;30;20109;-91
2022/01/22 17:50:56;;;;;;;9.70;3.28;;;;;;;0.04;100.00;102594.75;9850887;29;20130;-95
2022/01/22 17:56:09;;;;;;;12.02;4.25;;;;;;;3.50;100.00;103261.81;9860464;29;20067;-92
2022/01/22 18:02:08;;;;;;;21.70;5.65;;;;;;;-0.26;100.00;102555.16;9865913;29;20447;-93
2022/01/22 18:08:10;;;;;;;;;;;;;;;;;;;;;
2022/01/22 18:19:56;;;;;;;;;;;;;;;;;;;;;
2022/01/22 18:25:19;;;;;;;19.05;5.10;;;;;;;0.91;100.00;102980.69;9856558;30;20493;-92
2022/01/22 18:30:20;;;;;;;8.77;4.90;;;;;;;-1.00;100.00;102556.41;9845459;29;20043;-91
2022/01/22 18:35:30;;;;;;;29.42;6.78;;;;;;;-2.03;100.00;102452.88;9855722;29;20070;-91
2022/01/22 18:40:34;;;;;;;12.45;5.35;;;;;;;1.63;100.00;102899.91;9874676;29;20065;-91
2022/01/22 18:46:10;;;;;;;12.40;4.55;;;;;;;4.56;100.00;103330.41;9865000;29;20043;-92
2022/01/22 18:51:49;;;;;;;15.57;5.00;;;;;;;3.18;100.00;103214.91;9882474;29;20031;-92
2022/01/22 19:03:30;;;;;;;16.83;5.60;;;;;;;1.69;100.00;102861.31;9888679;29;20047;-93
2022/01/22 19:09:04;;;;;;;;;;;;;;;;;;;;;
2022/01/22 19:14:36;;;;;;;18.80;5.70;;;;;;;0.05;100.00;102680.44;9873268;29;20043;-92
2022/01/22 19:20:07;;;;;;;14.73;5.53;;;;;;;4.56;100.00;103323.06;9881053;29;20043;-92
2022/01/22 19:26:02;;;;;;;17.45;5.65;;;;;;;-2.00;100.00;102295.22;9893703;29;20039;-92
2022/01/22 19:31:32;;;;;;;10.52;4.70;;;;;;;3.09;100.00;103307.47;9894186;29;20114;-91
2022/01/22 19:36:54;;;;;;;21.30;4.82;;;;;;;0.97;100.00;102861.69;9877407;29;20124;-92
2022/01/22 19:41:58;;;;;;;15.38;4.80;;;;;;;-2.33;100.00;102334.97;9871282;29;20049;-91
2022/01/22 19:47:07;;;;;;;23.73;5.32;;;;;;;0.41;100.00;102854.16;9885518;29;20051;-92
2022/01/22 19:52:10;;;;;;;12.18;5.30;;;;;;;3.20;100.00;103150.28;9871123;29;20043;-93
2022/01/22 19:57:11;;;;;;;11.00;6.38;;;;;;;0.44;100.00;102844.91;9884537;29;20141;-92
2022/01/22 20:02:14;;;;;;;13.10;4.65;;;;;;;2.32;100.00;103086.25;9884162;29;20188;-92
2022/01/22 20:07:15;;;;;;;16.23;5.97;;;;;;;2.36;100.00;103022.44;9869258;29;20040;-91
2022/01/22 20:12:17;;;;;;;21.05;7.55;;;;;;;2.47;100.00;103247.91;9870650;29;20562;-92
2022/01/22 20:17:52;;;;;;;25.70;8.27;;;;;;;-0.96;100.00;102581.34;9867938;29;20082;-92
2022/01/22 20:29:05;;;;;;;14.57;6.28;;;;;;;-2.82;100.00;102223.28;9835630;30;20044;-93
2022/01/22 20:40:23;;;;;;;;;;;;;;;;;;;;;
2022/01/22 20:52:44;;;;;;;;;;;;;;;;;;;;;
2022/01/22 20:58:32;;;;;;;35.88;8.40;;;;;;;-1.12;100.00;102581.84;9636958;30;20060;-95
2022/01/22 21:04:54;;;;;;;;;;;;;;;;;;;;;
2022/01/22 21:10:04;;;;;;;;;;;;;;;;;;;;;
2022/01/22 21:16:13;;;;;;;;;;;;;;;;;;;;;
2022/01/22 21:22:14;;;;;;;;;;;;;;;;;;;;;
2022/01/22 21:28:26;;;;;;;;;;;;;;;;;;;;;
2022/01/22 21:34:17;;;;;;;;;;;;;;;;;;;;;
2022/01/22 21:40:06;;;;;;;17.65;8.05;;;;;;;0.33;100.00;102840.44;9760689;30;20037;-96
2022/01/22 21:45:35;;;;;;;20.20;8.82;;;;;;;1.52;100.00;102941.63;9761130;30;20045;-93
2022/01/22 21:50:47;;;;;;;25.30;9.93;;;;;;;0.38;100.00;102800.25;9760653;30;20055;-94
2022/01/22 21:56:51;;;;;;;17.05;9.00;;;;;;;-1.61;100.00;102365.53;9752416;30;20121;-93
2022/01/22 22:02:07;;;;;;;;;;;;;;;;;;;;;
2022/01/22 22:07:26;;;;;;;25.30;10.40;;;;;;;-0.56;100.00;102670.59;9762771;30;20068;-90
2022/01/22 22:12:32;;;;;;;19.73;10.25;;;;;;;-1.09;100.00;102712.19;9845100;30;20500;-95
2022/01/22 22:17:40;;;;;;;25.08;11.55;;;;;;;0.29;100.00;102698.13;9843289;30;20117;-93
2022/01/22 22:22:59;;;;;;;;;;;;;;;;;;;;;
2022/01/22 22:28:39;;;;;;;;;;;;;;;;;;;;;
2022/01/22 22:34:10;;;;;;;28.10;10.73;;;;;;;-1.05;100.00;102600.09;9842409;30;20374;-94
2022/01/22 22:39:13;;;;;;;26.83;10.82;;;;;;;3.07;100.00;103342.16;9842392;30;20043;-94
2022/01/22 22:44:44;;;;;;;36.75;12.75;;;;;;;3.11;100.00;103302.75;9843473;30;20048;-94
2022/01/22 22:50:04;;;;;;;;;;;;;;;;;;;;;
2022/01/22 23:00:55;;;;;;;30.38;13.18;;;;;;;-2.29;100.00;102549.53;9854351;30;20072;-94
2022/01/22 23:06:44;;;;;;;24.02;10.48;;;;;;;-1.38;100.00;102613.88;9857234;30;20051;-94
2022/01/22 23:12:17;;;;;;;29.95;12.00;;;;;;;-0.20;100.00;102852.34;9833333;30;20122;-94
2022/01/22 23:22:46;;;;;;;25.75;10.77;;;;;;;1.09;100.00;103059.56;9863077;30;20055;-90
2022/01/22 23:27:51;;;;;;;22.20;10.82;;;;;;;0.41;100.00;102767.44;9851174;30;20043;-96
2022/01/22 23:56:47;;;;;;;;;;;;;;;;;;;;;
